createdAt,value
2023-06-03T00:01:28.685Z,99731.13
2023-06-03T00:03:59.369Z,99732.03
2023-06-03T00:06:32.144Z,99731.34
2023-06-03T00:09:10.789Z,99743.03
2023-06-03T00:11:44.006Z,99743.88
2023-06-03T00:14:14.922Z,99748.69
2023-06-03T00:16:48.031Z,99744.69
2023-06-03T00:19:20.002Z,99746.69
2023-06-03T00:21:53.142Z,99749.53
2023-06-03T00:24:24.426Z,99750.34
2023-06-03T00:27:05.918Z,99752.19
2023-06-03T00:29:36.444Z,99745.34
2023-06-03T00:32:07.657Z,99740.34
2023-06-03T00:34:38.151Z,99740.00
2023-06-03T00:37:11.705Z,99739.19
2023-06-03T00:39:45.042Z,99745.88
2023-06-03T00:42:18.346Z,99744.69
2023-06-03T00:44:48.677Z,99749.22
2023-06-03T00:47:24.379Z,99750.06
2023-06-03T00:49:59.061Z,99752.91
2023-06-03T00:52:38.088Z,99752.56
2023-06-03T00:55:09.508Z,99757.91
2023-06-03T00:57:42.488Z,99757.69
2023-06-03T01:00:13.605Z,99761.06
2023-06-03T01:02:48.095Z,99763.72
2023-06-03T01:05:21.890Z,99763.22
2023-06-03T01:08:05.172Z,99769.88
2023-06-03T01:10:42.716Z,99773.84
2023-06-03T01:13:25.871Z,99765.84
2023-06-03T01:16:06.453Z,99756.69
2023-06-03T01:18:39.359Z,99766.88
2023-06-03T01:21:13.768Z,99764.06
2023-06-03T01:23:53.873Z,99764.56
2023-06-03T01:26:30.312Z,99760.22
2023-06-03T01:29:02.981Z,99765.84
2023-06-03T01:31:37.190Z,99761.72
2023-06-03T01:34:09.545Z,99765.22
2023-06-03T01:36:46.678Z,99769.06
2023-06-03T01:39:20.087Z,99764.91
2023-06-03T01:41:51.146Z,99771.84
2023-06-03T01:44:26.879Z,99771.84
2023-06-03T01:46:57.898Z,99767.91
2023-06-03T01:49:32.538Z,99767.38
2023-06-03T01:52:02.984Z,99766.41
2023-06-03T01:54:38.036Z,99769.38
2023-06-03T01:57:11.921Z,99771.56
2023-06-03T01:59:42.541Z,99775.88
2023-06-03T02:02:16.715Z,99775.56
2023-06-03T02:04:47.157Z,99778.22
2023-06-03T02:07:19.312Z,99773.22
2023-06-03T02:09:59.231Z,99777.88
2023-06-03T02:12:30.059Z,99784.72
2023-06-03T02:15:03.335Z,99784.22
2023-06-03T02:17:34.944Z,99786.53
2023-06-03T02:20:08.090Z,99790.72
2023-06-03T02:22:40.409Z,99785.38
2023-06-03T02:25:13.519Z,99792.91
2023-06-03T02:27:45.197Z,99796.03
2023-06-03T02:30:15.895Z,99796.22
2023-06-03T02:32:47.009Z,99798.22
2023-06-03T02:35:19.031Z,99794.53
2023-06-03T02:37:49.822Z,99798.22
2023-06-03T02:40:25.968Z,99807.88
2023-06-03T02:42:56.477Z,99804.81
2023-06-03T02:45:27.037Z,99813.81
2023-06-03T02:47:59.243Z,99817.19
2023-06-03T02:50:29.672Z,99816.84
2023-06-03T02:53:02.867Z,99812.53
2023-06-03T02:55:38.220Z,99829.00
2023-06-03T02:58:13.962Z,99827.66
2023-06-03T03:00:44.325Z,99828.19
2023-06-03T03:03:14.441Z,99842.81
2023-06-03T03:05:49.160Z,99847.31
2023-06-03T03:08:21.812Z,99848.16
2023-06-03T03:10:54.826Z,99843.34
2023-06-03T03:13:37.179Z,99849.31
2023-06-03T03:16:08.298Z,99848.16
2023-06-03T03:18:42.382Z,99850.31
2023-06-03T03:21:12.805Z,99855.31
2023-06-03T03:23:42.844Z,99863.50
2023-06-03T03:26:17.509Z,99872.47
2023-06-03T03:28:48.143Z,99863.50
2023-06-03T03:31:21.773Z,99879.16
2023-06-03T03:33:57.391Z,99882.13
2023-06-03T03:36:30.407Z,99886.31
2023-06-03T03:39:07.570Z,99885.63
2023-06-03T03:41:49.085Z,99889.13
2023-06-03T03:44:21.175Z,99890.31
2023-06-03T03:46:55.737Z,99893.63
2023-06-03T03:49:36.239Z,99893.81
2023-06-03T03:52:09.311Z,99898.81
2023-06-03T03:54:42.220Z,99907.63
2023-06-03T03:57:19.109Z,99907.31
2023-06-03T03:59:49.074Z,99906.81
2023-06-03T04:02:19.406Z,99909.97
2023-06-03T04:04:49.594Z,99921.31
2023-06-03T04:07:29.799Z,99916.81
2023-06-03T04:10:00.242Z,99924.78
2023-06-03T04:12:38.630Z,99918.31
2023-06-03T04:15:13.840Z,99925.63
2023-06-03T04:17:46.965Z,99920.81
2023-06-03T04:20:42.475Z,99921.47
2023-06-03T04:23:21.541Z,99928.47
2023-06-03T04:25:54.996Z,99934.94
2023-06-03T04:28:29.225Z,99936.81
2023-06-03T04:30:59.444Z,99938.81
2023-06-03T04:33:29.545Z,99944.28
2023-06-03T04:35:59.841Z,99941.13
2023-06-03T04:38:29.818Z,99935.97
2023-06-03T04:41:03.090Z,99942.31
2023-06-03T04:43:39.477Z,99942.44
2023-06-03T04:46:11.736Z,99947.38
2023-06-03T04:48:46.841Z,99945.78
2023-06-03T04:51:17.195Z,99945.28
2023-06-03T04:53:47.561Z,99955.13
2023-06-03T04:56:20.678Z,99955.44
2023-06-03T04:58:56.547Z,99957.28
2023-06-03T05:01:29.509Z,99958.69
2023-06-03T05:04:00.188Z,99957.59
2023-06-03T05:06:30.587Z,99965.50
2023-06-03T05:09:00.889Z,99964.31
2023-06-03T05:11:34.389Z,99971.22
2023-06-03T05:14:07.427Z,99973.78
2023-06-03T05:16:40.996Z,99982.06
2023-06-03T05:19:13.529Z,99981.28
2023-06-03T05:21:43.971Z,99983.69
2023-06-03T05:24:14.728Z,99980.81
2023-06-03T05:26:45.282Z,99986.22
2023-06-03T05:29:26.712Z,99973.44
2023-06-03T05:32:04.192Z,99986.16
2023-06-03T05:34:34.539Z,99983.59
2023-06-03T05:37:08.582Z,99983.28
2023-06-03T05:39:38.830Z,99983.88
2023-06-03T05:42:09.458Z,99987.25
2023-06-03T05:44:42.331Z,99988.22
2023-06-03T05:47:15.593Z,99989.16
2023-06-03T05:49:46.382Z,99984.75
2023-06-03T05:52:16.851Z,99980.00
2023-06-03T05:54:49.474Z,99988.28
2023-06-03T05:57:24.929Z,99994.00
2023-06-03T06:00:00.731Z,99995.69
2023-06-03T06:02:31.246Z,99993.91
2023-06-03T06:05:05.269Z,100000.91
2023-06-03T06:07:43.046Z,100004.78
2023-06-03T06:10:15.859Z,100002.75
2023-06-03T06:12:46.112Z,100000.34
2023-06-03T06:15:19.379Z,100004.81
2023-06-03T06:17:49.677Z,100003.78
2023-06-03T06:20:20.103Z,99997.72
2023-06-03T06:22:52.696Z,100006.66
2023-06-03T06:25:23.276Z,100013.94
2023-06-03T06:27:55.898Z,100009.84
2023-06-03T06:30:30.413Z,100014.81
2023-06-03T06:33:00.838Z,100014.19
2023-06-03T06:35:31.734Z,100013.38
2023-06-03T06:38:02.701Z,100012.38
2023-06-03T06:40:36.902Z,100010.78
2023-06-03T06:43:07.626Z,100016.19
2023-06-03T06:45:41.187Z,100019.00
2023-06-03T06:48:14.666Z,100019.06
2023-06-03T06:50:52.707Z,100013.50
2023-06-03T06:53:24.409Z,100013.09
2023-06-03T06:55:56.845Z,100016.72
2023-06-03T06:58:30.546Z,100018.16
2023-06-03T07:01:07.251Z,100014.53
2023-06-03T07:03:39.735Z,100014.19
2023-06-03T07:06:10.158Z,100023.94
2023-06-03T07:08:40.458Z,100016.25
2023-06-03T07:11:11.046Z,100022.00
2023-06-03T07:13:43.350Z,100024.34
2023-06-03T07:16:16.570Z,100023.78
2023-06-03T07:18:51.613Z,100030.59
2023-06-03T07:21:26.931Z,100025.41
2023-06-03T07:23:57.350Z,100039.22
2023-06-03T07:26:33.347Z,100035.75
2023-06-03T07:29:04.238Z,100034.09
2023-06-03T07:31:41.694Z,100045.88
2023-06-03T07:34:14.334Z,100044.88
2023-06-03T07:36:44.541Z,100048.63
2023-06-03T07:39:22.393Z,100042.78
2023-06-03T07:41:54.643Z,100050.47
2023-06-03T07:44:44.468Z,100045.69
2023-06-03T07:47:21.720Z,100041.00
2023-06-03T07:49:55.756Z,100045.22
2023-06-03T07:52:28.654Z,100051.16
2023-06-03T07:54:58.976Z,100045.75
2023-06-03T07:57:29.451Z,100043.72
2023-06-03T07:59:59.923Z,100039.28
2023-06-03T08:02:33.246Z,100045.50
2023-06-03T08:05:04.505Z,100060.44
2023-06-03T08:07:35.986Z,100050.06
2023-06-03T08:10:10.575Z,100046.88
2023-06-03T08:12:49.545Z,100046.31
2023-06-03T08:15:30.180Z,100050.63
2023-06-03T08:18:06.274Z,100057.94
2023-06-03T08:20:41.215Z,100061.06
2023-06-03T08:23:13.177Z,100060.44
2023-06-03T08:25:43.450Z,100057.94
2023-06-03T08:28:13.745Z,100053.59
2023-06-03T08:30:43.959Z,100053.41
2023-06-03T08:33:16.982Z,100052.25
2023-06-03T08:35:49.174Z,100067.50
2023-06-03T08:38:21.461Z,100066.56
2023-06-03T08:40:55.102Z,100053.97
2023-06-03T08:43:31.201Z,100060.38
2023-06-03T08:46:10.662Z,100056.94
2023-06-03T08:49:02.690Z,100069.16
2023-06-03T08:51:40.252Z,100072.53
2023-06-03T08:54:15.874Z,100073.66
2023-06-03T08:56:49.523Z,100066.13
2023-06-03T08:59:24.392Z,100073.84
2023-06-03T09:01:59.958Z,100080.09
2023-06-03T09:04:38.088Z,100072.13
2023-06-03T09:07:11.344Z,100066.31
2023-06-03T09:09:43.058Z,100070.88
2023-06-03T09:12:14.287Z,100068.00
2023-06-03T09:14:45.191Z,100063.81
2023-06-03T09:17:15.837Z,100074.94
2023-06-03T09:19:50.498Z,100072.97
2023-06-03T09:22:21.720Z,100079.06
2023-06-03T09:24:54.908Z,100076.41
2023-06-03T09:27:25.780Z,100082.63
2023-06-03T09:29:58.199Z,100082.41
2023-06-03T09:32:28.742Z,100081.19
2023-06-03T09:35:05.340Z,100071.25
2023-06-03T09:37:35.862Z,100083.66
2023-06-03T09:40:10.443Z,100081.13
2023-06-03T09:42:45.048Z,100070.50
2023-06-03T09:45:27.394Z,100071.47
2023-06-03T09:47:58.055Z,100075.06
2023-06-03T09:50:32.667Z,100071.00
2023-06-03T09:53:04.535Z,100068.53
2023-06-03T09:55:36.562Z,100068.31
2023-06-03T09:58:07.967Z,100065.63
2023-06-03T10:00:51.007Z,100064.38
2023-06-03T10:03:25.530Z,100070.84
2023-06-03T10:06:00.734Z,100069.59
2023-06-03T10:08:32.938Z,100074.06
2023-06-03T10:11:05.685Z,100063.69
2023-06-03T10:13:38.670Z,100066.44
2023-06-03T10:16:13.884Z,100073.88
2023-06-03T10:18:50.314Z,100065.28
2023-06-03T10:21:25.415Z,100074.44
2023-06-03T10:23:57.397Z,100069.47
2023-06-03T10:26:28.714Z,100075.41
2023-06-03T10:29:00.652Z,100067.75
2023-06-03T10:31:32.936Z,100076.16
2023-06-03T10:34:05.698Z,100065.97
2023-06-03T10:36:39.563Z,100073.13
2023-06-03T10:39:14.137Z,100069.97
2023-06-03T10:41:46.016Z,100066.66
2023-06-03T10:44:17.913Z,100062.91
2023-06-03T10:46:54.726Z,100060.44
2023-06-03T10:49:28.630Z,100063.34
2023-06-03T10:52:24.303Z,100062.09
2023-06-03T10:55:05.288Z,100064.78
2023-06-03T10:57:42.150Z,100069.13
2023-06-03T11:00:14.074Z,100069.56
2023-06-03T11:03:13.152Z,100068.16
2023-06-03T11:05:43.477Z,100059.84
2023-06-03T11:08:16.430Z,100057.25
2023-06-03T11:10:47.403Z,100065.09
2023-06-03T11:13:46.743Z,100061.16
2023-06-03T11:16:17.291Z,100061.31
2023-06-03T11:18:47.695Z,100051.81
2023-06-03T11:21:47.865Z,100059.59
2023-06-03T11:24:54.212Z,100057.31
2023-06-03T11:27:26.053Z,100067.47
2023-06-03T11:29:57.752Z,100069.56
2023-06-03T11:32:29.706Z,100060.78
2023-06-03T11:35:29.652Z,100054.41
2023-06-03T11:38:04.711Z,100058.78
2023-06-03T11:40:49.252Z,100059.59
2023-06-03T11:43:19.558Z,100054.03
2023-06-03T11:45:50.142Z,100056.94
2023-06-03T11:48:37.712Z,100061.06
2023-06-03T11:51:12.345Z,100049.81
2023-06-03T11:53:42.812Z,100051.72
2023-06-03T11:56:17.041Z,100049.00
2023-06-03T11:58:55.767Z,100046.13
2023-06-03T12:01:26.068Z,100049.44
2023-06-03T12:04:03.386Z,100052.34
2023-06-03T12:06:37.197Z,100035.53
2023-06-03T12:09:08.106Z,100043.00
2023-06-03T12:11:42.838Z,100048.19
2023-06-03T12:14:13.491Z,100042.19
2023-06-03T12:16:46.909Z,100047.78
2023-06-03T12:19:17.262Z,100046.53
2023-06-03T12:21:47.703Z,100045.69
2023-06-03T12:24:18.009Z,100037.13
2023-06-03T12:26:51.482Z,100041.97
2023-06-03T12:29:21.871Z,100036.78
2023-06-03T12:32:05.256Z,100033.69
2023-06-03T12:34:40.396Z,100037.41
2023-06-03T12:37:13.791Z,100037.41
2023-06-03T12:39:47.578Z,100033.88
2023-06-03T12:42:22.157Z,100032.03
2023-06-03T12:44:54.376Z,100030.78
2023-06-03T12:47:26.017Z,100032.03
2023-06-03T12:50:10.164Z,100021.25
2023-06-03T12:52:42.487Z,100026.84
2023-06-03T12:55:15.376Z,100023.94
2023-06-03T12:57:50.598Z,100020.41
2023-06-03T13:00:23.780Z,100021.66
2023-06-03T13:02:58.103Z,100017.31
2023-06-03T13:05:28.449Z,100026.84
2023-06-03T13:07:58.799Z,100021.03
2023-06-03T13:10:29.616Z,100016.88
2023-06-03T13:13:02.527Z,100011.94
2023-06-03T13:15:32.827Z,100018.03
2023-06-03T13:18:03.196Z,100004.97
2023-06-03T13:20:33.584Z,100005.88
2023-06-03T13:23:03.913Z,100008.19
2023-06-03T13:25:34.511Z,100010.88
2023-06-03T13:28:10.983Z,100008.16
2023-06-03T13:30:41.546Z,100004.06
2023-06-03T13:33:12.123Z,99997.38
2023-06-03T13:35:42.435Z,100004.44
2023-06-03T13:38:13.049Z,100000.91
2023-06-03T13:40:46.217Z,100004.84
2023-06-03T13:43:19.519Z,100003.59
2023-06-03T13:45:50.279Z,99998.81
2023-06-03T13:48:20.623Z,99999.09
2023-06-03T13:50:51.018Z,99999.25
2023-06-03T13:53:21.471Z,100006.34
2023-06-03T13:55:51.940Z,99995.31
2023-06-03T13:58:24.829Z,99993.66
2023-06-03T14:00:55.178Z,99992.44
2023-06-03T14:03:25.442Z,99997.19
2023-06-03T14:05:55.661Z,100000.53
2023-06-03T14:08:26.288Z,100007.56
2023-06-03T14:10:56.714Z,99997.63
2023-06-03T14:13:29.682Z,99998.47
2023-06-03T14:16:00.114Z,99993.69
2023-06-03T14:18:30.536Z,99989.13
2023-06-03T14:21:01.166Z,99992.41
2023-06-03T14:23:31.630Z,99995.53
2023-06-03T14:26:02.754Z,99995.53
2023-06-03T14:28:35.724Z,99994.50
2023-06-03T14:31:06.557Z,99987.69
2023-06-03T14:33:37.240Z,99982.06
2023-06-03T14:36:08.013Z,99986.22
2023-06-03T14:38:38.376Z,99991.84
2023-06-03T14:41:11.709Z,99988.50
2023-06-03T14:43:44.744Z,99985.78
2023-06-03T14:46:16.939Z,99971.34
2023-06-03T14:48:48.923Z,99980.44
2023-06-03T14:51:19.421Z,99982.25
2023-06-03T14:53:49.802Z,99980.56
2023-06-03T14:56:20.284Z,99979.97
2023-06-03T14:58:54.770Z,99987.88
2023-06-03T15:01:28.002Z,99979.53
2023-06-03T15:03:58.414Z,99975.66
2023-06-03T15:06:28.798Z,99972.56
2023-06-03T15:08:59.071Z,99968.38
2023-06-03T15:11:32.840Z,99966.91
2023-06-03T15:14:05.740Z,99967.75
2023-06-03T15:16:37.287Z,99957.00
2023-06-03T15:19:07.668Z,99955.56
2023-06-03T15:21:38.372Z,99957.38
2023-06-03T15:24:09.773Z,99957.19
2023-06-03T15:26:40.137Z,99962.56
2023-06-03T15:29:13.078Z,99955.53
2023-06-03T15:31:43.433Z,99950.56
2023-06-03T15:34:16.967Z,99955.50
2023-06-03T15:36:47.338Z,99961.50
2023-06-03T15:39:21.261Z,99958.22
2023-06-03T15:41:51.594Z,99960.88
2023-06-03T15:44:24.437Z,99952.13
2023-06-03T15:46:57.160Z,99947.78
2023-06-03T15:49:28.191Z,99959.22
2023-06-03T15:51:58.676Z,99959.59
2023-06-03T15:54:28.950Z,99950.03
2023-06-03T15:56:59.229Z,99960.63
2023-06-03T15:59:32.364Z,99961.66
2023-06-03T16:02:02.755Z,99967.53
2023-06-03T16:04:38.549Z,99955.91
2023-06-03T16:07:08.962Z,99957.53
2023-06-03T16:09:39.633Z,99957.91
2023-06-03T16:12:10.591Z,99950.03
2023-06-03T16:14:43.776Z,99953.53
2023-06-03T16:17:14.137Z,99954.19
2023-06-03T16:19:44.571Z,99955.66
2023-06-03T16:22:14.933Z,99964.06
2023-06-03T16:24:49.252Z,99960.75
2023-06-03T16:27:19.553Z,99958.00
2023-06-03T16:29:52.453Z,99972.00
2023-06-03T16:32:22.707Z,99977.94
2023-06-03T16:34:53.036Z,99972.47
2023-06-03T16:37:23.249Z,99974.31
2023-06-03T16:39:54.769Z,99978.81
2023-06-03T16:42:25.248Z,99969.84
2023-06-03T16:44:58.267Z,99974.69
2023-06-03T16:47:28.669Z,99965.78
2023-06-03T16:49:59.145Z,99972.00
2023-06-03T16:52:29.410Z,99971.19
2023-06-03T16:55:01.805Z,99970.88
2023-06-03T16:57:32.101Z,99976.47
2023-06-03T17:00:05.666Z,99976.56
2023-06-03T17:02:36.054Z,99984.44
2023-06-03T17:05:06.622Z,99981.13
2023-06-03T17:07:38.891Z,99978.78
2023-06-03T17:10:10.233Z,99987.63
2023-06-03T17:12:40.469Z,99990.75
2023-06-03T17:15:14.420Z,99994.22
2023-06-03T17:17:44.867Z,99988.66
2023-06-03T17:20:18.986Z,99993.13
2023-06-03T17:22:49.594Z,99995.16
2023-06-03T17:25:21.115Z,99999.69
2023-06-03T17:27:51.908Z,99993.50
2023-06-03T17:30:24.959Z,99995.97
2023-06-03T17:32:55.347Z,100004.22
2023-06-03T17:35:25.713Z,99995.03
2023-06-03T17:37:56.031Z,99999.88
2023-06-03T17:40:26.749Z,100006.16
2023-06-03T17:42:57.104Z,100008.91
2023-06-03T17:45:30.227Z,100004.78
2023-06-03T17:48:00.530Z,100005.56
2023-06-03T17:50:30.868Z,100003.09
2023-06-03T17:53:01.157Z,100002.19
2023-06-03T17:55:32.170Z,100009.34
2023-06-03T17:58:02.494Z,100002.41
2023-06-03T18:00:36.363Z,100003.78
2023-06-03T18:03:06.752Z,100007.53
2023-06-03T18:05:37.215Z,100003.16
2023-06-03T18:08:07.556Z,100017.50
2023-06-03T18:10:37.876Z,100014.47
2023-06-03T18:13:08.744Z,100018.91
2023-06-03T18:15:41.734Z,100019.38
2023-06-03T18:18:14.262Z,100028.94
2023-06-03T18:20:44.601Z,100029.88
2023-06-03T18:23:17.212Z,100035.03
2023-06-03T18:25:49.699Z,100041.22
2023-06-03T18:28:20.027Z,100042.28
2023-06-03T18:30:53.041Z,100049.72
2023-06-03T18:33:26.440Z,100047.50
2023-06-03T18:35:56.793Z,100045.22
2023-06-03T18:38:27.038Z,100053.31
2023-06-03T18:40:59.499Z,100054.47
2023-06-03T18:43:32.646Z,100049.84
2023-06-03T18:46:05.754Z,100050.88
2023-06-03T18:48:36.138Z,100051.97
2023-06-03T18:51:06.627Z,100063.38
2023-06-03T18:53:37.380Z,100064.41
2023-06-03T18:56:08.412Z,100066.47
2023-06-03T18:58:39.993Z,100077.03
2023-06-03T19:01:12.991Z,100078.06
2023-06-03T19:03:47.202Z,100076.75
2023-06-03T19:06:23.346Z,100090.81
2023-06-03T19:08:53.906Z,100081.13
2023-06-03T19:11:24.354Z,100079.97
2023-06-03T19:13:55.500Z,100081.47
2023-06-03T19:16:28.566Z,100086.28
2023-06-03T19:18:58.979Z,100090.34
2023-06-03T19:21:29.327Z,100094.19
2023-06-03T19:23:59.748Z,100089.03
2023-06-03T19:26:30.165Z,100090.22
2023-06-03T19:29:00.964Z,100099.91
2023-06-03T19:31:35.790Z,100098.91
2023-06-03T19:34:06.901Z,100095.06
2023-06-03T19:36:37.144Z,100101.25
2023-06-03T19:39:09.928Z,100101.75
2023-06-03T19:41:40.165Z,100098.75
2023-06-03T19:44:10.162Z,100102.91
2023-06-03T19:46:48.708Z,100107.25
2023-06-03T19:49:19.006Z,100106.69
2023-06-03T19:51:49.048Z,100112.03
2023-06-03T19:54:22.431Z,100112.31
2023-06-03T19:56:55.335Z,100112.13
2023-06-03T19:59:25.838Z,100111.63
2023-06-03T20:01:58.904Z,100116.75
2023-06-03T20:04:29.141Z,100115.72
2023-06-03T20:06:59.163Z,100119.72
2023-06-03T20:09:29.489Z,100121.03
2023-06-03T20:11:59.850Z,100117.50
2023-06-03T20:14:29.966Z,100119.63
2023-06-03T20:17:02.831Z,100112.47
2023-06-03T20:19:35.900Z,100115.53
2023-06-03T20:22:09.492Z,100113.13
2023-06-03T20:24:42.025Z,100111.13
2023-06-03T20:27:13.103Z,100115.75
2023-06-03T20:29:44.062Z,100120.47
2023-06-03T20:32:17.564Z,100116.28
2023-06-03T20:34:48.465Z,100113.63
2023-06-03T20:37:19.250Z,100114.44
2023-06-03T20:39:49.505Z,100116.78
2023-06-03T20:42:22.370Z,100120.28
2023-06-03T20:44:52.890Z,100115.56
2023-06-03T20:47:29.160Z,100111.09
2023-06-03T20:49:59.637Z,100118.16
2023-06-03T20:52:29.669Z,100106.59
2023-06-03T20:54:59.899Z,100117.44
2023-06-03T20:57:30.236Z,100115.22
2023-06-03T21:00:05.641Z,100110.53
2023-06-03T21:02:38.650Z,100112.50
2023-06-03T21:05:12.187Z,100112.41
2023-06-03T21:07:42.467Z,100105.56
2023-06-03T21:10:12.892Z,100107.19
2023-06-03T21:12:43.189Z,100108.78
2023-06-03T21:15:13.810Z,100099.28
2023-06-03T21:17:46.784Z,100108.84
2023-06-03T21:20:17.136Z,100103.72
2023-06-03T21:22:47.424Z,100107.19
2023-06-03T21:25:17.459Z,100103.72
2023-06-03T21:27:47.727Z,100112.59
2023-06-03T21:30:18.011Z,100116.03
2023-06-03T21:32:50.919Z,100119.38
2023-06-03T21:35:21.420Z,100114.09
2023-06-03T21:37:51.735Z,100117.84
2023-06-03T21:40:22.335Z,100123.84
2023-06-03T21:42:52.704Z,100123.16
2023-06-03T21:45:23.024Z,100132.28
2023-06-03T21:47:56.099Z,100122.47
2023-06-03T21:50:28.400Z,100122.91
2023-06-03T21:52:58.698Z,100125.88
2023-06-03T21:55:31.051Z,100124.19
2023-06-03T21:58:01.363Z,100129.06
2023-06-03T22:00:31.832Z,100119.56
2023-06-03T22:03:04.841Z,100117.50
2023-06-03T22:05:35.167Z,100115.00
2023-06-03T22:08:08.685Z,100116.41
2023-06-03T22:10:39.064Z,100123.94
2023-06-03T22:13:09.169Z,100116.81
2023-06-03T22:15:39.508Z,100118.91
2023-06-03T22:18:15.084Z,100122.75
2023-06-03T22:20:45.485Z,100121.06
2023-06-03T22:23:15.576Z,100119.25
2023-06-03T22:25:46.364Z,100123.88
2023-06-03T22:28:17.800Z,100119.44
2023-06-03T22:30:48.125Z,100116.03
2023-06-03T22:33:24.170Z,100122.91
2023-06-03T22:35:56.521Z,100115.41
2023-06-03T22:38:27.075Z,100120.44
2023-06-03T22:41:00.180Z,100126.19
2023-06-03T22:43:31.634Z,100122.28
2023-06-03T22:46:01.967Z,100121.03
2023-06-03T22:48:34.881Z,100122.28
2023-06-03T22:51:07.352Z,100118.38
2023-06-03T22:53:37.845Z,100118.38
2023-06-03T22:56:08.445Z,100119.81
2023-06-03T22:58:40.753Z,100116.72
2023-06-03T23:01:11.013Z,100120.63
2023-06-03T23:03:44.027Z,100106.13
2023-06-03T23:06:14.342Z,100114.34
2023-06-03T23:08:44.724Z,100118.97
2023-06-03T23:11:14.721Z,100117.97
2023-06-03T23:13:45.142Z,100117.59
2023-06-03T23:16:15.478Z,100121.06
2023-06-03T23:18:48.181Z,100120.25
2023-06-03T23:21:26.277Z,100121.50
2023-06-03T23:23:56.680Z,100131.66
2023-06-03T23:26:26.971Z,100129.03
2023-06-03T23:28:57.276Z,100121.19
2023-06-03T23:31:27.596Z,100122.59
2023-06-03T23:34:02.504Z,100111.44
2023-06-03T23:36:32.782Z,100120.22
2023-06-03T23:39:03.065Z,100112.84
2023-06-03T23:41:33.401Z,100119.09
2023-06-03T23:44:03.752Z,100109.19
2023-06-03T23:46:36.677Z,100109.47
2023-06-03T23:49:09.692Z,100123.97
2023-06-03T23:51:39.974Z,100111.00
2023-06-03T23:54:10.217Z,100110.97
2023-06-03T23:56:40.964Z,100110.41
2023-06-03T23:59:14.254Z,100113.38
